sensor_id;sensor_type;location;lat;lon;timestamp;temperature;humidity
76537;DHT22;65381;51.254;15.592;2023-08-06T00:00:30;14.90;83.20
76537;DHT22;65381;51.254;15.592;2023-08-06T00:03:18;14.90;83.40
76537;DHT22;65381;51.254;15.592;2023-08-06T00:05:47;14.90;83.40
76537;DHT22;65381;51.254;15.592;2023-08-06T00:08:15;14.90;83.40
76537;DHT22;65381;51.254;15.592;2023-08-06T00:10:43;14.90;83.40
76537;DHT22;65381;51.254;15.592;2023-08-06T00:13:11;14.90;83.30
76537;DHT22;65381;51.254;15.592;2023-08-06T00:15:40;14.90;83.40
76537;DHT22;65381;51.254;15.592;2023-08-06T00:18:08;14.80;83.40
76537;DHT22;65381;51.254;15.592;2023-08-06T00:20:39;14.80;83.60
76537;DHT22;65381;51.254;15.592;2023-08-06T00:23:08;14.80;83.70
76537;DHT22;65381;51.254;15.592;2023-08-06T00:25:54;14.80;83.70
76537;DHT22;65381;51.254;15.592;2023-08-06T00:28:22;14.80;83.70
76537;DHT22;65381;51.254;15.592;2023-08-06T00:30:54;14.90;83.80
76537;DHT22;65381;51.254;15.592;2023-08-06T00:33:23;14.90;83.70
76537;DHT22;65381;51.254;15.592;2023-08-06T00:35:51;14.90;83.80
76537;DHT22;65381;51.254;15.592;2023-08-06T00:38:19;14.90;83.80
76537;DHT22;65381;51.254;15.592;2023-08-06T00:40:48;14.90;83.70
76537;DHT22;65381;51.254;15.592;2023-08-06T00:43:16;14.90;83.70
76537;DHT22;65381;51.254;15.592;2023-08-06T00:45:45;14.90;83.60
76537;DHT22;65381;51.254;15.592;2023-08-06T00:48:13;14.90;83.70
76537;DHT22;65381;51.254;15.592;2023-08-06T00:50:42;14.90;83.80
76537;DHT22;65381;51.254;15.592;2023-08-06T00:53:10;14.90;83.90
76537;DHT22;65381;51.254;15.592;2023-08-06T00:55:43;14.90;83.80
76537;DHT22;65381;51.254;15.592;2023-08-06T00:58:14;14.90;83.70
76537;DHT22;65381;51.254;15.592;2023-08-06T01:00:44;14.90;83.70
76537;DHT22;65381;51.254;15.592;2023-08-06T01:03:14;14.90;83.80
76537;DHT22;65381;51.254;15.592;2023-08-06T01:05:44;14.90;83.90
76537;DHT22;65381;51.254;15.592;2023-08-06T01:11:00;14.90;83.90
76537;DHT22;65381;51.254;15.592;2023-08-06T01:14:08;14.90;83.90
76537;DHT22;65381;51.254;15.592;2023-08-06T01:16:40;14.90;84.00
76537;DHT22;65381;51.254;15.592;2023-08-06T01:19:19;14.90;83.90
76537;DHT22;65381;51.254;15.592;2023-08-06T01:21:48;14.90;83.80
76537;DHT22;65381;51.254;15.592;2023-08-06T01:24:16;14.90;83.80
76537;DHT22;65381;51.254;15.592;2023-08-06T01:26:51;14.90;83.80
76537;DHT22;65381;51.254;15.592;2023-08-06T01:29:30;14.90;84.00
76537;DHT22;65381;51.254;15.592;2023-08-06T01:32:01;14.80;83.90
76537;DHT22;65381;51.254;15.592;2023-08-06T01:34:32;14.80;83.90
76537;DHT22;65381;51.254;15.592;2023-08-06T01:37:03;14.80;83.90
76537;DHT22;65381;51.254;15.592;2023-08-06T01:39:34;14.80;84.00
76537;DHT22;65381;51.254;15.592;2023-08-06T01:42:04;14.80;84.00
76537;DHT22;65381;51.254;15.592;2023-08-06T01:44:32;14.70;84.10
76537;DHT22;65381;51.254;15.592;2023-08-06T01:47:01;14.70;84.00
76537;DHT22;65381;51.254;15.592;2023-08-06T01:49:29;14.60;84.10
76537;DHT22;65381;51.254;15.592;2023-08-06T01:51:58;14.60;84.10
76537;DHT22;65381;51.254;15.592;2023-08-06T01:54:26;14.60;84.20
76537;DHT22;65381;51.254;15.592;2023-08-06T01:56:56;14.50;84.30
76537;DHT22;65381;51.254;15.592;2023-08-06T01:59:26;14.50;84.40
76537;DHT22;65381;51.254;15.592;2023-08-06T02:01:55;14.50;84.50
76537;DHT22;65381;51.254;15.592;2023-08-06T02:04:25;14.60;84.50
76537;DHT22;65381;51.254;15.592;2023-08-06T02:06:53;14.50;84.40
76537;DHT22;65381;51.254;15.592;2023-08-06T02:09:22;14.50;84.60
76537;DHT22;65381;51.254;15.592;2023-08-06T02:11:50;14.50;84.70
76537;DHT22;65381;51.254;15.592;2023-08-06T02:14:18;14.50;84.70
76537;DHT22;65381;51.254;15.592;2023-08-06T02:16:47;14.50;84.70
76537;DHT22;65381;51.254;15.592;2023-08-06T02:19:15;14.50;84.80
76537;DHT22;65381;51.254;15.592;2023-08-06T02:21:44;14.50;84.80
76537;DHT22;65381;51.254;15.592;2023-08-06T02:24:12;14.50;84.70
76537;DHT22;65381;51.254;15.592;2023-08-06T02:26:41;14.50;84.70
76537;DHT22;65381;51.254;15.592;2023-08-06T02:29:09;14.50;84.80
76537;DHT22;65381;51.254;15.592;2023-08-06T02:31:37;14.50;85.00
76537;DHT22;65381;51.254;15.592;2023-08-06T02:34:06;14.40;84.80
76537;DHT22;65381;51.254;15.592;2023-08-06T02:36:35;14.40;85.00
76537;DHT22;65381;51.254;15.592;2023-08-06T02:39:03;14.40;85.00
76537;DHT22;65381;51.254;15.592;2023-08-06T02:41:32;14.40;85.00
76537;DHT22;65381;51.254;15.592;2023-08-06T02:44:02;14.40;85.00
76537;DHT22;65381;51.254;15.592;2023-08-06T02:46:31;14.40;85.10
76537;DHT22;65381;51.254;15.592;2023-08-06T02:48:59;14.40;85.10
76537;DHT22;65381;51.254;15.592;2023-08-06T02:51:28;14.40;85.10
76537;DHT22;65381;51.254;15.592;2023-08-06T02:53:56;14.40;85.20
76537;DHT22;65381;51.254;15.592;2023-08-06T02:56:25;14.40;85.30
76537;DHT22;65381;51.254;15.592;2023-08-06T02:59:11;14.40;85.30
76537;DHT22;65381;51.254;15.592;2023-08-06T03:02:00;14.40;85.20
76537;DHT22;65381;51.254;15.592;2023-08-06T03:04:38;14.40;85.20
76537;DHT22;65381;51.254;15.592;2023-08-06T03:07:08;14.40;85.20
76537;DHT22;65381;51.254;15.592;2023-08-06T03:09:45;14.40;85.30
76537;DHT22;65381;51.254;15.592;2023-08-06T03:12:14;14.40;85.30
76537;DHT22;65381;51.254;15.592;2023-08-06T03:14:42;14.40;85.30
76537;DHT22;65381;51.254;15.592;2023-08-06T03:17:11;14.40;85.30
76537;DHT22;65381;51.254;15.592;2023-08-06T03:19:40;14.40;85.40
76537;DHT22;65381;51.254;15.592;2023-08-06T03:22:10;14.30;85.40
76537;DHT22;65381;51.254;15.592;2023-08-06T03:24:38;14.30;85.50
76537;DHT22;65381;51.254;15.592;2023-08-06T03:27:08;14.30;85.50
76537;DHT22;65381;51.254;15.592;2023-08-06T03:29:39;14.30;85.50
76537;DHT22;65381;51.254;15.592;2023-08-06T03:32:08;14.30;85.50
76537;DHT22;65381;51.254;15.592;2023-08-06T03:34:36;14.30;85.50
76537;DHT22;65381;51.254;15.592;2023-08-06T03:37:05;14.30;85.70
76537;DHT22;65381;51.254;15.592;2023-08-06T03:39:33;14.20;85.70
76537;DHT22;65381;51.254;15.592;2023-08-06T03:42:02;14.20;85.70
76537;DHT22;65381;51.254;15.592;2023-08-06T03:44:30;14.20;85.80
76537;DHT22;65381;51.254;15.592;2023-08-06T03:46:59;14.20;85.80
76537;DHT22;65381;51.254;15.592;2023-08-06T03:49:27;14.20;85.90
76537;DHT22;65381;51.254;15.592;2023-08-06T03:51:55;14.20;85.90
76537;DHT22;65381;51.254;15.592;2023-08-06T03:54:23;14.20;86.00
76537;DHT22;65381;51.254;15.592;2023-08-06T03:56:52;14.20;85.90
76537;DHT22;65381;51.254;15.592;2023-08-06T03:59:20;14.20;86.00
76537;DHT22;65381;51.254;15.592;2023-08-06T04:01:49;14.20;85.80
76537;DHT22;65381;51.254;15.592;2023-08-06T04:04:18;14.30;85.90
76537;DHT22;65381;51.254;15.592;2023-08-06T04:06:46;14.20;85.90
76537;DHT22;65381;51.254;15.592;2023-08-06T04:09:14;14.20;85.90
76537;DHT22;65381;51.254;15.592;2023-08-06T04:11:42;14.30;86.00
76537;DHT22;65381;51.254;15.592;2023-08-06T04:14:10;14.20;86.10
76537;DHT22;65381;51.254;15.592;2023-08-06T04:16:39;14.30;86.10
76537;DHT22;65381;51.254;15.592;2023-08-06T04:19:07;14.30;86.00
76537;DHT22;65381;51.254;15.592;2023-08-06T04:21:36;14.30;86.10
76537;DHT22;65381;51.254;15.592;2023-08-06T04:24:04;14.30;86.10
76537;DHT22;65381;51.254;15.592;2023-08-06T04:26:32;14.30;86.00
76537;DHT22;65381;51.254;15.592;2023-08-06T04:29:00;14.30;86.20
76537;DHT22;65381;51.254;15.592;2023-08-06T04:31:29;14.30;86.20
76537;DHT22;65381;51.254;15.592;2023-08-06T04:33:57;14.30;86.20
76537;DHT22;65381;51.254;15.592;2023-08-06T04:36:26;14.40;86.30
76537;DHT22;65381;51.254;15.592;2023-08-06T04:38:54;14.40;86.30
76537;DHT22;65381;51.254;15.592;2023-08-06T04:41:23;14.40;86.20
76537;DHT22;65381;51.254;15.592;2023-08-06T04:43:51;14.40;86.10
76537;DHT22;65381;51.254;15.592;2023-08-06T04:46:19;14.30;86.20
76537;DHT22;65381;51.254;15.592;2023-08-06T04:48:47;14.30;86.40
76537;DHT22;65381;51.254;15.592;2023-08-06T04:51:15;14.30;86.40
76537;DHT22;65381;51.254;15.592;2023-08-06T04:53:43;14.30;86.30
76537;DHT22;65381;51.254;15.592;2023-08-06T04:56:11;14.30;86.40
76537;DHT22;65381;51.254;15.592;2023-08-06T04:58:39;14.30;86.50
76537;DHT22;65381;51.254;15.592;2023-08-06T05:01:08;14.30;86.40
76537;DHT22;65381;51.254;15.592;2023-08-06T05:03:36;14.40;86.40
76537;DHT22;65381;51.254;15.592;2023-08-06T05:06:05;14.40;86.40
76537;DHT22;65381;51.254;15.592;2023-08-06T05:08:33;14.40;86.40
76537;DHT22;65381;51.254;15.592;2023-08-06T05:11:01;14.40;86.30
76537;DHT22;65381;51.254;15.592;2023-08-06T05:13:29;14.40;86.30
76537;DHT22;65381;51.254;15.592;2023-08-06T05:15:58;14.40;86.30
76537;DHT22;65381;51.254;15.592;2023-08-06T05:18:26;14.40;86.50
76537;DHT22;65381;51.254;15.592;2023-08-06T05:20:55;14.40;86.40
76537;DHT22;65381;51.254;15.592;2023-08-06T05:23:23;14.40;86.60
76537;DHT22;65381;51.254;15.592;2023-08-06T05:25:51;14.50;86.60
76537;DHT22;65381;51.254;15.592;2023-08-06T05:28:19;14.50;86.40
76537;DHT22;65381;51.254;15.592;2023-08-06T05:30:48;14.50;86.50
76537;DHT22;65381;51.254;15.592;2023-08-06T05:33:16;14.50;86.40
76537;DHT22;65381;51.254;15.592;2023-08-06T05:35:44;14.50;86.40
76537;DHT22;65381;51.254;15.592;2023-08-06T05:38:12;14.40;86.50
76537;DHT22;65381;51.254;15.592;2023-08-06T05:40:41;14.40;86.40
76537;DHT22;65381;51.254;15.592;2023-08-06T05:43:09;14.40;86.60
76537;DHT22;65381;51.254;15.592;2023-08-06T05:45:38;14.50;86.70
76537;DHT22;65381;51.254;15.592;2023-08-06T05:48:06;14.40;86.60
76537;DHT22;65381;51.254;15.592;2023-08-06T05:50:34;14.50;86.50
76537;DHT22;65381;51.254;15.592;2023-08-06T05:53:03;14.50;86.70
76537;DHT22;65381;51.254;15.592;2023-08-06T05:55:31;14.50;86.60
76537;DHT22;65381;51.254;15.592;2023-08-06T05:58:00;14.50;86.60
76537;DHT22;65381;51.254;15.592;2023-08-06T06:00:29;14.50;86.60
76537;DHT22;65381;51.254;15.592;2023-08-06T06:02:57;14.50;86.60
76537;DHT22;65381;51.254;15.592;2023-08-06T06:05:25;14.50;86.50
76537;DHT22;65381;51.254;15.592;2023-08-06T06:07:53;14.50;86.60
76537;DHT22;65381;51.254;15.592;2023-08-06T06:10:22;14.50;86.50
76537;DHT22;65381;51.254;15.592;2023-08-06T06:12:50;14.40;86.60
76537;DHT22;65381;51.254;15.592;2023-08-06T06:15:18;14.40;86.60
76537;DHT22;65381;51.254;15.592;2023-08-06T06:17:46;14.30;86.60
76537;DHT22;65381;51.254;15.592;2023-08-06T06:20:15;14.40;86.80
76537;DHT22;65381;51.254;15.592;2023-08-06T06:22:43;14.40;86.70
76537;DHT22;65381;51.254;15.592;2023-08-06T06:25:11;14.40;86.60
76537;DHT22;65381;51.254;15.592;2023-08-06T06:27:39;14.40;86.70
76537;DHT22;65381;51.254;15.592;2023-08-06T06:30:08;14.30;86.90
76537;DHT22;65381;51.254;15.592;2023-08-06T06:32:36;14.40;86.90
76537;DHT22;65381;51.254;15.592;2023-08-06T06:35:05;14.40;86.80
76537;DHT22;65381;51.254;15.592;2023-08-06T06:37:33;14.40;86.80
76537;DHT22;65381;51.254;15.592;2023-08-06T06:40:01;14.50;87.00
76537;DHT22;65381;51.254;15.592;2023-08-06T06:42:29;14.50;87.10
76537;DHT22;65381;51.254;15.592;2023-08-06T06:45:01;14.60;87.00
76537;DHT22;65381;51.254;15.592;2023-08-06T06:47:29;14.60;87.10
76537;DHT22;65381;51.254;15.592;2023-08-06T06:49:57;14.70;87.10
76537;DHT22;65381;51.254;15.592;2023-08-06T06:52:25;14.80;87.10
76537;DHT22;65381;51.254;15.592;2023-08-06T06:54:53;14.80;87.10
76537;DHT22;65381;51.254;15.592;2023-08-06T06:57:21;14.90;87.10
76537;DHT22;65381;51.254;15.592;2023-08-06T06:59:49;14.90;87.00
76537;DHT22;65381;51.254;15.592;2023-08-06T07:02:17;15.00;87.10
76537;DHT22;65381;51.254;15.592;2023-08-06T07:04:46;15.00;87.10
76537;DHT22;65381;51.254;15.592;2023-08-06T07:07:15;15.10;87.20
76537;DHT22;65381;51.254;15.592;2023-08-06T07:09:44;15.20;87.00
76537;DHT22;65381;51.254;15.592;2023-08-06T07:12:12;15.20;86.80
76537;DHT22;65381;51.254;15.592;2023-08-06T07:14:41;15.20;86.60
76537;DHT22;65381;51.254;15.592;2023-08-06T07:17:09;15.10;86.70
76537;DHT22;65381;51.254;15.592;2023-08-06T07:19:37;15.00;86.60
76537;DHT22;65381;51.254;15.592;2023-08-06T07:22:05;14.90;86.70
76537;DHT22;65381;51.254;15.592;2023-08-06T07:24:34;14.90;86.70
76537;DHT22;65381;51.254;15.592;2023-08-06T07:27:02;14.80;86.90
76537;DHT22;65381;51.254;15.592;2023-08-06T07:29:31;14.80;86.90
76537;DHT22;65381;51.254;15.592;2023-08-06T07:31:59;14.80;86.80
76537;DHT22;65381;51.254;15.592;2023-08-06T07:34:27;14.80;86.80
76537;DHT22;65381;51.254;15.592;2023-08-06T07:36:55;14.70;86.90
76537;DHT22;65381;51.254;15.592;2023-08-06T07:39:24;14.70;86.90
76537;DHT22;65381;51.254;15.592;2023-08-06T07:41:52;14.70;86.90
76537;DHT22;65381;51.254;15.592;2023-08-06T07:44:21;14.70;86.90
76537;DHT22;65381;51.254;15.592;2023-08-06T07:46:49;14.60;86.90
76537;DHT22;65381;51.254;15.592;2023-08-06T07:49:18;14.60;86.90
76537;DHT22;65381;51.254;15.592;2023-08-06T07:51:47;14.60;87.00
76537;DHT22;65381;51.254;15.592;2023-08-06T07:54:15;14.60;87.10
76537;DHT22;65381;51.254;15.592;2023-08-06T07:56:43;14.60;87.20
76537;DHT22;65381;51.254;15.592;2023-08-06T07:59:12;14.60;87.20
76537;DHT22;65381;51.254;15.592;2023-08-06T08:01:40;14.60;87.20
76537;DHT22;65381;51.254;15.592;2023-08-06T08:04:08;14.70;87.20
76537;DHT22;65381;51.254;15.592;2023-08-06T08:06:36;14.70;87.20
76537;DHT22;65381;51.254;15.592;2023-08-06T08:09:05;14.70;87.30
76537;DHT22;65381;51.254;15.592;2023-08-06T08:11:33;14.70;87.40
76537;DHT22;65381;51.254;15.592;2023-08-06T08:14:02;14.80;87.20
76537;DHT22;65381;51.254;15.592;2023-08-06T08:16:30;14.80;87.20
76537;DHT22;65381;51.254;15.592;2023-08-06T08:18:59;14.80;87.20
76537;DHT22;65381;51.254;15.592;2023-08-06T08:21:27;14.80;87.30
76537;DHT22;65381;51.254;15.592;2023-08-06T08:23:55;14.90;87.30
76537;DHT22;65381;51.254;15.592;2023-08-06T08:26:23;14.90;87.30
76537;DHT22;65381;51.254;15.592;2023-08-06T08:28:52;14.90;87.20
76537;DHT22;65381;51.254;15.592;2023-08-06T08:31:20;14.90;87.20
76537;DHT22;65381;51.254;15.592;2023-08-06T08:33:49;14.90;87.30
76537;DHT22;65381;51.254;15.592;2023-08-06T08:36:21;14.90;87.40
76537;DHT22;65381;51.254;15.592;2023-08-06T08:38:50;14.90;87.30
76537;DHT22;65381;51.254;15.592;2023-08-06T08:41:21;14.90;87.20
76537;DHT22;65381;51.254;15.592;2023-08-06T08:43:50;14.90;87.30
76537;DHT22;65381;51.254;15.592;2023-08-06T08:46:19;15.00;87.50
76537;DHT22;65381;51.254;15.592;2023-08-06T08:48:48;15.00;87.60
76537;DHT22;65381;51.254;15.592;2023-08-06T08:51:17;15.10;87.60
76537;DHT22;65381;51.254;15.592;2023-08-06T08:53:46;15.20;87.50
76537;DHT22;65381;51.254;15.592;2023-08-06T08:56:15;15.20;87.50
76537;DHT22;65381;51.254;15.592;2023-08-06T08:58:44;15.30;87.50
76537;DHT22;65381;51.254;15.592;2023-08-06T09:01:13;15.30;87.50
76537;DHT22;65381;51.254;15.592;2023-08-06T09:03:43;15.40;87.50
76537;DHT22;65381;51.254;15.592;2023-08-06T09:06:12;15.40;87.40
76537;DHT22;65381;51.254;15.592;2023-08-06T09:08:56;15.40;87.30
76537;DHT22;65381;51.254;15.592;2023-08-06T09:11:26;15.40;87.50
76537;DHT22;65381;51.254;15.592;2023-08-06T09:13:56;15.50;87.60
76537;DHT22;65381;51.254;15.592;2023-08-06T09:16:24;15.50;87.60
76537;DHT22;65381;51.254;15.592;2023-08-06T09:18:53;15.50;87.40
76537;DHT22;65381;51.254;15.592;2023-08-06T09:21:21;15.60;87.30
76537;DHT22;65381;51.254;15.592;2023-08-06T09:23:49;15.50;87.10
76537;DHT22;65381;51.254;15.592;2023-08-06T09:26:17;15.40;87.10
76537;DHT22;65381;51.254;15.592;2023-08-06T09:28:46;15.40;87.20
76537;DHT22;65381;51.254;15.592;2023-08-06T09:31:15;15.30;87.20
76537;DHT22;65381;51.254;15.592;2023-08-06T09:33:43;15.20;87.30
76537;DHT22;65381;51.254;15.592;2023-08-06T09:36:13;15.30;87.60
76537;DHT22;65381;51.254;15.592;2023-08-06T09:38:41;15.30;87.80
76537;DHT22;65381;51.254;15.592;2023-08-06T09:41:10;15.30;87.90
76537;DHT22;65381;51.254;15.592;2023-08-06T09:43:42;15.40;87.80
76537;DHT22;65381;51.254;15.592;2023-08-06T09:46:12;15.40;87.70
76537;DHT22;65381;51.254;15.592;2023-08-06T09:48:45;15.50;87.60
76537;DHT22;65381;51.254;15.592;2023-08-06T09:51:14;15.50;87.50
76537;DHT22;65381;51.254;15.592;2023-08-06T09:53:44;15.40;87.60
76537;DHT22;65381;51.254;15.592;2023-08-06T09:56:13;15.50;87.70
76537;DHT22;65381;51.254;15.592;2023-08-06T09:58:44;15.50;87.70
76537;DHT22;65381;51.254;15.592;2023-08-06T10:01:14;15.60;87.70
76537;DHT22;65381;51.254;15.592;2023-08-06T10:03:44;15.60;87.60
76537;DHT22;65381;51.254;15.592;2023-08-06T10:06:18;15.60;87.60
76537;DHT22;65381;51.254;15.592;2023-08-06T10:08:47;15.60;87.50
76537;DHT22;65381;51.254;15.592;2023-08-06T10:11:17;15.60;87.50
76537;DHT22;65381;51.254;15.592;2023-08-06T10:13:46;15.60;87.50
76537;DHT22;65381;51.254;15.592;2023-08-06T10:16:14;15.60;87.50
76537;DHT22;65381;51.254;15.592;2023-08-06T10:18:43;15.60;87.60
76537;DHT22;65381;51.254;15.592;2023-08-06T10:21:12;15.60;87.70
76537;DHT22;65381;51.254;15.592;2023-08-06T10:23:41;15.60;87.70
76537;DHT22;65381;51.254;15.592;2023-08-06T10:26:09;15.60;87.70
76537;DHT22;65381;51.254;15.592;2023-08-06T10:28:39;15.60;87.80
76537;DHT22;65381;51.254;15.592;2023-08-06T10:31:07;15.60;87.70
76537;DHT22;65381;51.254;15.592;2023-08-06T10:33:46;15.60;87.80
76537;DHT22;65381;51.254;15.592;2023-08-06T10:36:15;15.60;87.80
76537;DHT22;65381;51.254;15.592;2023-08-06T10:38:48;15.60;87.80
76537;DHT22;65381;51.254;15.592;2023-08-06T10:41:27;15.60;87.80
76537;DHT22;65381;51.254;15.592;2023-08-06T10:44:14;15.60;87.80
76537;DHT22;65381;51.254;15.592;2023-08-06T10:46:43;15.60;87.80
76537;DHT22;65381;51.254;15.592;2023-08-06T10:49:11;15.60;87.80
76537;DHT22;65381;51.254;15.592;2023-08-06T10:51:41;15.60;87.70
76537;DHT22;65381;51.254;15.592;2023-08-06T10:54:09;15.60;87.70
76537;DHT22;65381;51.254;15.592;2023-08-06T10:56:40;15.60;87.70
76537;DHT22;65381;51.254;15.592;2023-08-06T10:59:10;15.60;87.60
76537;DHT22;65381;51.254;15.592;2023-08-06T11:01:43;15.60;87.70
76537;DHT22;65381;51.254;15.592;2023-08-06T11:04:11;15.60;87.80
76537;DHT22;65381;51.254;15.592;2023-08-06T11:06:43;15.60;87.80
76537;DHT22;65381;51.254;15.592;2023-08-06T11:09:12;15.60;87.90
76537;DHT22;65381;51.254;15.592;2023-08-06T11:11:40;15.70;87.90
76537;DHT22;65381;51.254;15.592;2023-08-06T11:14:15;15.80;87.70
76537;DHT22;65381;51.254;15.592;2023-08-06T11:16:44;15.70;87.70
76537;DHT22;65381;51.254;15.592;2023-08-06T11:19:12;15.70;87.70
76537;DHT22;65381;51.254;15.592;2023-08-06T11:21:43;15.70;87.70
76537;DHT22;65381;51.254;15.592;2023-08-06T11:24:12;15.70;87.70
76537;DHT22;65381;51.254;15.592;2023-08-06T11:26:40;15.70;87.80
76537;DHT22;65381;51.254;15.592;2023-08-06T11:29:08;15.70;88.00
76537;DHT22;65381;51.254;15.592;2023-08-06T11:31:36;15.80;88.00
76537;DHT22;65381;51.254;15.592;2023-08-06T11:34:05;15.80;88.10
76537;DHT22;65381;51.254;15.592;2023-08-06T11:36:34;15.80;88.00
76537;DHT22;65381;51.254;15.592;2023-08-06T11:39:04;15.80;87.90
76537;DHT22;65381;51.254;15.592;2023-08-06T11:41:36;15.90;87.80
76537;DHT22;65381;51.254;15.592;2023-08-06T11:44:06;15.90;87.80
76537;DHT22;65381;51.254;15.592;2023-08-06T11:46:53;15.90;88.00
76537;DHT22;65381;51.254;15.592;2023-08-06T11:55:09;16.00;87.90
76537;DHT22;65381;51.254;15.592;2023-08-06T11:57:44;16.00;88.00
76537;DHT22;65381;51.254;15.592;2023-08-06T12:00:13;16.00;88.00
76537;DHT22;65381;51.254;15.592;2023-08-06T12:02:45;16.00;87.80
76537;DHT22;65381;51.254;15.592;2023-08-06T12:05:29;16.00;87.70
76537;DHT22;65381;51.254;15.592;2023-08-06T12:08:00;16.00;87.60
76537;DHT22;65381;51.254;15.592;2023-08-06T12:10:30;15.90;87.80
76537;DHT22;65381;51.254;15.592;2023-08-06T12:12:58;15.90;87.80
76537;DHT22;65381;51.254;15.592;2023-08-06T12:15:28;15.90;87.80
76537;DHT22;65381;51.254;15.592;2023-08-06T12:17:59;15.90;88.20
76537;DHT22;65381;51.254;15.592;2023-08-06T12:20:27;16.00;88.20
76537;DHT22;65381;51.254;15.592;2023-08-06T12:22:56;16.00;88.10
76537;DHT22;65381;51.254;15.592;2023-08-06T12:25:24;16.00;88.00
76537;DHT22;65381;51.254;15.592;2023-08-06T12:27:52;16.00;88.00
76537;DHT22;65381;51.254;15.592;2023-08-06T12:30:20;16.00;88.30
76537;DHT22;65381;51.254;15.592;2023-08-06T12:32:48;16.00;88.30
76537;DHT22;65381;51.254;15.592;2023-08-06T12:35:16;16.10;88.30
76537;DHT22;65381;51.254;15.592;2023-08-06T12:37:44;16.20;88.40
76537;DHT22;65381;51.254;15.592;2023-08-06T12:40:14;16.30;88.30
76537;DHT22;65381;51.254;15.592;2023-08-06T12:43:02;16.40;88.30
76537;DHT22;65381;51.254;15.592;2023-08-06T12:45:30;16.40;88.00
76537;DHT22;65381;51.254;15.592;2023-08-06T12:47:58;16.40;87.90
76537;DHT22;65381;51.254;15.592;2023-08-06T12:50:27;16.40;87.90
76537;DHT22;65381;51.254;15.592;2023-08-06T12:52:55;16.40;88.00
76537;DHT22;65381;51.254;15.592;2023-08-06T12:55:23;16.40;87.90
76537;DHT22;65381;51.254;15.592;2023-08-06T12:57:52;16.40;87.60
76537;DHT22;65381;51.254;15.592;2023-08-06T13:00:29;16.40;87.80
76537;DHT22;65381;51.254;15.592;2023-08-06T13:02:58;16.40;87.50
76537;DHT22;65381;51.254;15.592;2023-08-06T13:05:27;16.40;87.60
76537;DHT22;65381;51.254;15.592;2023-08-06T13:07:56;16.50;87.70
76537;DHT22;65381;51.254;15.592;2023-08-06T13:10:24;16.50;87.50
76537;DHT22;65381;51.254;15.592;2023-08-06T13:12:53;16.40;87.40
76537;DHT22;65381;51.254;15.592;2023-08-06T13:15:22;16.40;87.30
76537;DHT22;65381;51.254;15.592;2023-08-06T13:17:51;16.40;87.30
76537;DHT22;65381;51.254;15.592;2023-08-06T13:20:20;16.30;87.50
76537;DHT22;65381;51.254;15.592;2023-08-06T13:22:49;16.30;87.70
76537;DHT22;65381;51.254;15.592;2023-08-06T13:25:21;16.30;87.60
76537;DHT22;65381;51.254;15.592;2023-08-06T13:27:51;16.20;87.50
76537;DHT22;65381;51.254;15.592;2023-08-06T13:30:20;16.20;87.50
76537;DHT22;65381;51.254;15.592;2023-08-06T13:32:50;16.10;87.20
76537;DHT22;65381;51.254;15.592;2023-08-06T13:35:20;16.00;87.40
76537;DHT22;65381;51.254;15.592;2023-08-06T13:37:48;16.00;87.50
76537;DHT22;65381;51.254;15.592;2023-08-06T13:40:17;16.00;87.50
76537;DHT22;65381;51.254;15.592;2023-08-06T13:42:46;15.90;87.70
76537;DHT22;65381;51.254;15.592;2023-08-06T13:45:15;15.90;87.50
76537;DHT22;65381;51.254;15.592;2023-08-06T13:47:44;15.80;87.70
76537;DHT22;65381;51.254;15.592;2023-08-06T13:50:13;15.90;87.80
76537;DHT22;65381;51.254;15.592;2023-08-06T13:52:43;16.00;87.90
76537;DHT22;65381;51.254;15.592;2023-08-06T13:55:12;16.00;87.60
76537;DHT22;65381;51.254;15.592;2023-08-06T13:57:41;16.00;87.80
76537;DHT22;65381;51.254;15.592;2023-08-06T14:00:11;16.00;87.80
76537;DHT22;65381;51.254;15.592;2023-08-06T14:02:40;16.00;87.80
76537;DHT22;65381;51.254;15.592;2023-08-06T14:05:09;16.00;88.00
76537;DHT22;65381;51.254;15.592;2023-08-06T14:07:38;16.00;87.80
76537;DHT22;65381;51.254;15.592;2023-08-06T14:10:07;16.00;87.70
76537;DHT22;65381;51.254;15.592;2023-08-06T14:12:37;16.00;87.70
76537;DHT22;65381;51.254;15.592;2023-08-06T14:15:07;15.90;87.70
76537;DHT22;65381;51.254;15.592;2023-08-06T14:17:36;15.80;87.70
76537;DHT22;65381;51.254;15.592;2023-08-06T14:20:05;15.80;87.80
76537;DHT22;65381;51.254;15.592;2023-08-06T14:22:35;15.80;87.80
76537;DHT22;65381;51.254;15.592;2023-08-06T14:25:05;15.80;87.90
76537;DHT22;65381;51.254;15.592;2023-08-06T14:27:34;15.80;87.90
76537;DHT22;65381;51.254;15.592;2023-08-06T14:30:07;15.80;88.00
76537;DHT22;65381;51.254;15.592;2023-08-06T14:32:36;15.80;88.00
76537;DHT22;65381;51.254;15.592;2023-08-06T14:35:05;15.70;88.00
76537;DHT22;65381;51.254;15.592;2023-08-06T14:37:34;15.70;88.10
76537;DHT22;65381;51.254;15.592;2023-08-06T14:40:05;15.60;88.00
76537;DHT22;65381;51.254;15.592;2023-08-06T14:42:34;15.60;88.10
76537;DHT22;65381;51.254;15.592;2023-08-06T14:45:04;15.60;88.20
76537;DHT22;65381;51.254;15.592;2023-08-06T14:47:33;15.60;88.10
76537;DHT22;65381;51.254;15.592;2023-08-06T14:50:02;15.60;88.20
76537;DHT22;65381;51.254;15.592;2023-08-06T14:52:30;15.60;88.20
76537;DHT22;65381;51.254;15.592;2023-08-06T14:55:00;15.60;88.00
76537;DHT22;65381;51.254;15.592;2023-08-06T14:57:30;15.50;87.90
76537;DHT22;65381;51.254;15.592;2023-08-06T15:00:00;15.40;88.10
76537;DHT22;65381;51.254;15.592;2023-08-06T15:02:29;15.40;88.30
76537;DHT22;65381;51.254;15.592;2023-08-06T15:04:58;15.40;88.40
76537;DHT22;65381;51.254;15.592;2023-08-06T15:07:27;15.30;88.30
76537;DHT22;65381;51.254;15.592;2023-08-06T15:09:59;15.30;88.30
76537;DHT22;65381;51.254;15.592;2023-08-06T15:12:48;15.30;88.30
76537;DHT22;65381;51.254;15.592;2023-08-06T15:15:17;15.20;88.40
76537;DHT22;65381;51.254;15.592;2023-08-06T15:17:48;15.20;88.50
76537;DHT22;65381;51.254;15.592;2023-08-06T15:20:20;15.20;88.40
76537;DHT22;65381;51.254;15.592;2023-08-06T15:22:48;15.20;88.40
76537;DHT22;65381;51.254;15.592;2023-08-06T15:25:19;15.20;88.50
76537;DHT22;65381;51.254;15.592;2023-08-06T15:27:47;15.20;88.40
76537;DHT22;65381;51.254;15.592;2023-08-06T15:30:17;15.20;88.50
76537;DHT22;65381;51.254;15.592;2023-08-06T15:32:46;15.20;88.50
76537;DHT22;65381;51.254;15.592;2023-08-06T15:35:15;15.20;88.60
76537;DHT22;65381;51.254;15.592;2023-08-06T15:37:44;15.30;88.60